Winterbourne, United Kingdom
Current Conditions -  °F | °C
As of 11:50 AM on Tuesday 21 Oct 2014 (Local Time) from EGUB Reporting Station
Scattered Clouds Scattered Clouds  
Wind Chill: 54°   Ceiling: Unl
Heat Index: 54°   Visibility: 6mi
Dew Point: 39°   Wind: 22mph
Humidity: 58%   Direction: 260°W
Pressure: 29.71"   Gusts: 45mph
Location:  51.45°N, 1.35°W
Report Text: EGUB 211050Z 26019G39KT 9999 SCT035 12/04 Q1006 BLU NOSIG
Loading
Personal Weather Stations






























Interactive Weather Map
Tropical Storm Tracking
New forecast layout! Learn more

10-Day Weather Forecast

Advertisements
Track Severe Weather on mobile